Terminal Aerodrome Forecast
Issued by NWS Wilmington, OH

Current Version | Previous Version | Text Only | Print | Product List | Glossary Off
Versions: 1 2 3 4 5 6 7 8 9 10 11 12 13 14 15 16 17

807
FTUS41 KILN 252351
TAFCMH
TAF
KCMH 252351Z 2600/2624 29007KT P6SM BKN250
     FM260500 VRB04KT P6SM SKC
     FM261300 35004KT P6SM SCT035 BKN250=

USA.gov is the U.S. government's official web portal to all federal, state and local government web resources and services.